Weather at Salingyi Airport

Public forecast

Using degrees Celsius for public forecast. Weather courtesy of forecast.io.

Closest aviation weather report (METAR) to Salingyi Airport

Report is more than 2 hours old.

Closest report is Mandalay International Airport, 58.6 nm (108.6 km) ESE. Retrieved 2020/11/29 11:30 UTC (4 hours ago):

VYMD 291130Z 32003KT 6000 NSC 25/18 Q1013 NOSIG

Closest aviation forecast (TAF) to Salingyi Airport

Closest forecast is Mandalay International Airport, 58.6 nm (108.6 km) ESE. Retrieved 2020/11/29 12:00 UTC (4 hours ago):

TAF VYMD 291100Z 2912/3012 32005KT 6000 FEW025 TEMPO 2912/2918 32006KT 6000 FEW025